• Join FlightAware (Why Join?)
  • Login
  • US Flag 
07:56AM EDT


 

Airport Tracker/Info


-or-


 

Live Flight TrackerFlight Track Log ✈ RAX1073 ✈ 30-Apr-2013 ✈ KDPA - MMHO / HMO

Flight Track Log - Related Links

Times and Time Zones

All times are in EDT time to prevent confusion due to time zone crossing. See the RAX1073 flight status page for this flight to view local times or setup timezone preferences in your user account.

Time Position Orientation Groundspeed Altitude Reporting Facility
EDT Latitude Longitude Course Direction KTS MPH feet Rate Location/Type
12:40PM 41.8667 -88.3167 255° West 183 211 4,400  Level Chicago TRACON
12:41PM 41.8586 -88.3978 262° West 213 245 6,100 1,980 Climbing Chicago Center
12:42PM 41.8611 -88.4875 272° West 242 278 8,700 2,520 Climbing Chicago Center
12:43PM 41.8661 -88.5836 274° West 256 295 11,400 2,220 Climbing Chicago Center
12:44PM 41.8686 -88.6864 272° West 270 311 13,400 2,220 Climbing Chicago Center
12:45PM 41.5483 -89.6923 255° West  Level FlightAware Approximate
12:45PM 41.8536 -88.7986 260° West 302 348 16,000  Level Chicago Center
12:46PM 41.8167 -88.9228 248° West 303 349 19,000 2,460 Climbing Chicago Center
12:47PM 41.7842 -89.0300 248° West 310 357 21,200 1,980 Climbing Chicago Center
12:48PM 41.7494 -89.1414 247° West 323 372 23,100 1,320 Climbing Chicago Center
12:49PM 41.7247 -89.2650 255° West 346 398 24,000 780 Climbing Chicago Center
12:50PM 41.7206 -89.3881 267° West 335 386 24,800 1,320 Climbing Chicago Center
12:51PM 41.7100 -89.5425 265° West 347 399 26,800 1,740 Climbing Chicago Center
12:53PM 41.6931 -89.6789 261° West 359 413 28,500 1,680 Climbing Chicago Center
12:54PM 41.6417 -89.7986 240° Southwest 373 429 30,300 1,680 Climbing Chicago Center
12:55PM 41.5886 -89.9144 239° Southwest 369 425 32,000 1,500 Climbing Chicago Center
12:56PM 41.5372 -90.0314 240° Southwest 366 421 33,500 1,200 Climbing Chicago Center
12:57PM 41.4844 -90.1503 239° Southwest 373 429 34,600 960 Climbing Chicago Center
12:58PM 41.4297 -90.2722 239° Southwest 382 440 35,500 960 Climbing Chicago Center
12:59PM 41.3628 -90.4203 239° Southwest 390 449 36,700 960 Climbing Chicago Center
01:00PM 41.3056 -90.5428 238° Southwest 392 451 37,500 780 Climbing Chicago Center
01:01PM 41.2450 -90.6717 238° Southwest 413 475 38,400 840 Climbing Chicago Center
01:02PM 41.1872 -90.7942 238° Southwest 399 459 39,300 720 Climbing Chicago Center
01:03PM 41.1286 -90.9153 237° Southwest 392 451 39,900 300 Climbing Chicago Center
01:04PM 41.0547 -91.0639 237° Southwest 403 464 40,000  Climbing Chicago Center
01:05PM 40.9900 -91.1922 236° Southwest 416 479 40,000  Level Chicago Center
01:06PM 40.9361 -91.3100 239° Southwest 418 481 40,100 240 Climbing Chicago Center
01:07PM 40.8681 -91.4692 241° Southwest 419 482 40,600 540 Climbing Chicago Center
01:08PM 40.8094 -91.5972 239° Southwest 414 476 41,300 540 Climbing Chicago Center
01:09PM 40.7525 -91.7250 240° Southwest 408 470 41,800 480 Climbing Chicago Center
01:10PM 40.6939 -91.8514 239° Southwest 407 468 42,300 360 Climbing Chicago Center
01:11PM 40.6336 -91.9747 237° Southwest 405 466 42,600 240 Climbing Chicago Center
01:12PM 40.5717 -92.0969 236° Southwest 403 464 42,800 180 Climbing Kansas City Center
01:13PM 40.5117 -92.2169 237° Southwest 399 459 43,000 60 Climbing Kansas City Center
01:14PM 40.4406 -92.3569 236° Southwest 399 459 43,000  Level Kansas City Center
01:15PM 40.3789 -92.4792 237° Southwest 401 461 43,000  Level Kansas City Center
01:16PM 40.3117 -92.6131 237° Southwest 404 465 43,000  Level Kansas City Center
01:17PM 40.2558 -92.7336 239° Southwest 405 466 43,000  Level Kansas City Center
01:18PM 40.1825 -92.8689 235° Southwest 407 468 43,000  Level Kansas City Center
01:19PM 40.1231 -92.9900 237° Southwest 410 472 43,000  Level Kansas City Center
01:20PM 40.0625 -93.1136 237° Southwest 411 473 43,000  Level Kansas City Center
01:21PM 39.9886 -93.2636 237° Southwest 412 474 43,000  Level Kansas City Center
01:22PM 39.9261 -93.3872 237° Southwest 412 474 43,000  Level Kansas City Center
01:23PM 39.8656 -93.5122 238° Southwest 412 474 43,000  Level Kansas City Center
01:24PM 39.8050 -93.6358 238° Southwest 410 472 43,000  Level Kansas City Center
01:25PM 39.7389 -93.7703 237° Southwest 410 472 43,000  Level Kansas City Center
01:27PM 39.6714 -93.9097 238° Southwest 408 470 43,000  Level Kansas City Center
01:28PM 39.6122 -94.0267 237° Southwest 405 466 43,000  Level Kansas City Center
01:29PM 39.5528 -94.1428 236° Southwest 404 465 43,000  Level Kansas City Center
01:30PM 39.4825 -94.2792 236° Southwest 406 467 43,000  Level Kansas City Center
01:31PM 39.4236 -94.3956 237° Southwest 403 464 43,000  Level Kansas City Center
01:32PM 39.3542 -94.5319 237° Southwest 405 466 43,000  Level Kansas City Center
01:33PM 39.2956 -94.6492 237° Southwest 405 466 43,000  Level Kansas City Center
01:34PM 39.2256 -94.7850 236° Southwest 404 465 43,000  Level Kansas City Center
01:35PM 39.1617 -94.8981 234° Southwest 406 467 43,000  Level Kansas City Center
01:36PM 39.0858 -95.0308 234° Southwest 407 468 43,000  Level Kansas City Center
01:37PM 39.0183 -95.1519 234° Southwest 408 470 43,000  Level Kansas City Center
01:38PM 38.9575 -95.2603 234° Southwest 408 470 43,000  Level Kansas City Center
01:39PM 38.8828 -95.3936 234° Southwest 409 471 43,100  Climbing Kansas City Center
01:40PM 38.8189 -95.5081 234° Southwest 410 472 43,000 -60 Descending Kansas City Center
01:41PM 38.7453 -95.6433 235° Southwest 414 476 43,000  Level Kansas City Center
01:42PM 38.6833 -95.7608 236° Southwest 415 478 43,000  Level Kansas City Center
01:43PM 38.6117 -95.8972 236° Southwest 414 476 43,000  Level Kansas City Center
01:44PM 38.5497 -96.0125 236° Southwest 412 474 43,000  Level Kansas City Center
01:45PM 38.4869 -96.1267 235° Southwest 411 473 43,000  Level Kansas City Center
01:46PM 38.4103 -96.2606 234° Southwest 415 478 43,000  Level Kansas City Center
01:47PM 38.3458 -96.3736 234° Southwest 413 475 43,000  Level Kansas City Center
01:48PM 38.2800 -96.4894 234° Southwest 417 480 43,000  Level Kansas City Center
01:49PM 38.1983 -96.6336 234° Southwest 416 479 43,000  Level Kansas City Center
01:50PM 38.1297 -96.7525 234° Southwest 417 480 43,000  Level Kansas City Center
01:51PM 38.0606 -96.8736 234° Southwest 422 486 43,000  Level Kansas City Center
01:52PM 37.9919 -96.9936 234° Southwest 420 483 43,000  Level Kansas City Center
01:53PM 37.9222 -97.1150 234° Southwest 424 488 43,000  Level Kansas City Center
01:54PM 37.8542 -97.2367 235° Southwest 423 487 43,000  Level Kansas City Center
01:55PM 37.7719 -97.3831 235° Southwest 423 487 43,100  Climbing Kansas City Center
01:57PM 37.7044 -97.5058 235° Southwest 424 488 43,000 -60 Descending Kansas City Center
01:58PM 37.6325 -97.6275 233° Southwest 425 489 43,000  Level Kansas City Center
01:59PM 37.5606 -97.7456 232° Southwest 424 488 43,000  Level Kansas City Center
02:00PM 37.4856 -97.8653 232° Southwest 431 496 43,000  Level Kansas City Center
02:01PM 37.4114 -97.9817 231° Southwest 426 490 43,000  Level Kansas City Center
02:02PM 37.3364 -98.0975 231° Southwest 425 489 43,000  Level Kansas City Center
02:03PM 37.2633 -98.2136 232° Southwest 424 488 43,000  Level Kansas City Center
02:04PM 37.1758 -98.3528 232° Southwest 423 487 43,000  Level Kansas City Center
02:05PM 37.1019 -98.4681 231° Southwest 423 487 43,000  Level Kansas City Center
02:06PM 37.0317 -98.5783 231° Southwest 422 486 43,000  Level Kansas City Center
02:07PM 36.9606 -98.6944 233° Southwest 420 483 43,000  Level Kansas City Center
02:08PM 36.8919 -98.8128 234° Southwest 420 483 43,000  Level Kansas City Center
02:09PM 36.8100 -98.9519 234° Southwest 416 479 43,000  Level Kansas City Center
02:10PM 36.7422 -99.0669 234° Southwest 413 475 43,000  Level Kansas City Center
02:11PM 36.6747 -99.1833 234° Southwest 415 478 43,000  Level Kansas City Center
02:12PM 36.6064 -99.2981 233° Southwest 414 476 43,000  Level Kansas City Center
02:13PM 36.5375 -99.4122 233° Southwest 413 475 43,000  Level Kansas City Center
02:14PM 36.4703 -99.5267 234° Southwest 412 474 43,000  Level Kansas City Center
02:15PM 36.3894 -99.6653 234° Southwest 414 476 43,000  Level Kansas City Center
02:16PM 36.3231 -99.7806 234° Southwest 413 475 43,000  Level Kansas City Center
02:17PM 36.2528 -99.8936 232° Southwest 414 476 43,000  Level Kansas City Center
02:18PM 36.1775 -100.0061 230° Southwest 423 487 43,000  Level Kansas City Center
02:19PM 36.1053 -100.1178 231° Southwest 419 482 43,000  Level Kansas City Center
02:20PM 36.0633 -100.1842 232° Southwest 415 478 43,000 60 Level Albuquerque Center
02:21PM 35.9769 -100.3175 231° Southwest 414 476 43,100  Climbing Albuquerque Center
02:22PM 35.9053 -100.4297 232° Southwest 415 478 43,000 -60 Descending Albuquerque Center
02:23PM 35.8322 -100.5425 231° Southwest 417 480 43,000  Level Albuquerque Center
02:24PM 35.7622 -100.6558 233° Southwest 415 478 43,000  Level Albuquerque Center
02:25PM 35.6892 -100.7761 233° Southwest 416 479 43,000  Level Albuquerque Center
02:26PM 35.6186 -100.8889 232° Southwest 416 479 43,000  Level Albuquerque Center
02:27PM 35.5486 -101.0008 232° Southwest 414 476 43,000  Level Albuquerque Center
02:28PM 35.4772 -101.1114 232° Southwest 414 476 43,000  Level Albuquerque Center
02:29PM 35.4058 -101.2222 232° Southwest 413 475 43,000  Level Albuquerque Center
02:30PM 35.3250 -101.3528 233° Southwest 415 478 43,000  Level Albuquerque Center
02:31PM 35.2586 -101.4650 234° Southwest 409 471 43,000  Level Albuquerque Center
02:32PM 35.1858 -101.5736 231° Southwest 410 472 43,000  Level Albuquerque Center
02:33PM 35.1119 -101.6781 229° Southwest 443 510 43,000  Level Albuquerque Center
02:34PM 35.0272 -101.8081 232° Southwest 420 483 43,000  Level Albuquerque Center
02:35PM 34.9600 -101.9103 231° Southwest 407 468 43,000  Level Albuquerque Center
02:36PM 34.8903 -102.0186 232° Southwest 406 467 43,100  Climbing Albuquerque Center
02:37PM 34.8206 -102.1272 232° Southwest 407 468 43,000 -60 Descending Albuquerque Center
02:38PM 34.7517 -102.2364 232° Southwest 408 470 43,000  Level Albuquerque Center
02:39PM 34.6814 -102.3450 232° Southwest 408 470 43,000  Level Albuquerque Center
02:40PM 34.5944 -102.4717 230° Southwest 408 470 43,000  Level Albuquerque Center
02:41PM 34.5228 -102.5775 231° Southwest 407 468 43,000  Level Albuquerque Center
02:43PM 34.4469 -102.6783 228° Southwest 405 466 43,100  Climbing Albuquerque Center
02:44PM 34.3767 -102.7853 231° Southwest 405 466 43,000 -60 Descending Albuquerque Center
02:45PM 34.3058 -102.8903 231° Southwest 405 466 43,000  Level Albuquerque Center
02:46PM 34.2317 -102.9981 230° Southwest 404 465 43,000  Level Albuquerque Center
02:47PM 34.1583 -103.1050 230° Southwest 410 472 43,000  Level Albuquerque Center
02:48PM 34.0856 -103.2056 229° Southwest 406 467 43,000  Level Albuquerque Center
02:49PM 34.0128 -103.3056 229° Southwest 401 461 43,000  Level Albuquerque Center
02:50PM 33.9275 -103.4250 229° Southwest 397 457 43,000  Level Albuquerque Center
02:51PM 33.8547 -103.5233 228° Southwest 396 456 43,000  Level Albuquerque Center
02:52PM 33.7811 -103.6247 229° Southwest 399 459 43,000  Level Albuquerque Center
02:53PM 33.6953 -103.7450 229° Southwest 407 468 43,000  Level Albuquerque Center
02:54PM 33.6242 -103.8436 229° Southwest 393 452 43,000  Level Albuquerque Center
02:55PM 33.5506 -103.9439 229° Southwest 399 459 43,000  Level Albuquerque Center
02:56PM 33.4717 -104.0528 229° Southwest 401 461 43,000  Level Albuquerque Center
02:57PM 33.3981 -104.1519 228° Southwest 399 459 43,000  Level Albuquerque Center
02:58PM 33.3247 -104.2533 229° Southwest 403 464 43,000  Level Albuquerque Center
02:59PM 33.2533 -104.3483 228° Southwest 400 460 43,000  Level Albuquerque Center
03:00PM 33.1675 -104.4603 228° Southwest 406 467 43,000  Level Albuquerque Center
03:01PM 33.0928 -104.5614 229° Southwest 405 466 43,000  Level Albuquerque Center
03:02PM 33.0128 -104.6686 228° Southwest 402 463 43,000  Level Albuquerque Center
03:04PM 32.8622 -104.8678 228° Southwest 404 465 43,000  Level Albuquerque Center
03:05PM 32.7817 -104.9739 228° Southwest 401 461 43,100  Climbing Albuquerque Center
03:06PM 32.7069 -105.0731 228° Southwest 403 464 43,000 -60 Descending Albuquerque Center
03:07PM 32.6342 -105.1761 230° Southwest 411 473 43,000  Level Albuquerque Center
03:08PM 32.5608 -105.2744 229° Southwest 404 465 43,000  Level Albuquerque Center
03:09PM 32.4850 -105.3736 228° Southwest 406 467 43,000  Level Albuquerque Center
03:10PM 32.4089 -105.4744 228° Southwest 409 471 43,000  Level Albuquerque Center
03:11PM 32.3169 -105.5956 228° Southwest 412 474 43,000  Level Albuquerque Center
03:12PM 32.2419 -105.6947 228° Southwest 408 470 43,000  Level Albuquerque Center
03:13PM 32.1681 -105.7992 230° Southwest 415 478 43,000  Level Albuquerque Center
03:14PM 32.0939 -105.9022 230° Southwest 413 475 43,000  Level Albuquerque Center
03:15PM 32.0261 -106.0006 231° Southwest 414 476 43,000  Level Albuquerque Center
03:16PM 31.9358 -106.1244 229° Southwest 414 476 43,000  Level Albuquerque Center
03:18PM 31.8719 -106.2114 229° Southwest 414 476 43,000  Level Albuquerque Center
03:19PM 31.7761 -106.3258 225° Southwest 411 473 43,000  Level Albuquerque Center
03:20PM 31.6869 -106.4097 219° Southwest 410 472 43,000  Level Albuquerque Center
03:21PM 31.6039 -106.5031 224° Southwest 414 476 43,000  Level Albuquerque Center
03:23PM 31.4720 -106.6909 236° Southwest  Level FlightAware Approximate
03:30PM 31.0318 -107.4181 235° Southwest  Level FlightAware Approximate
03:31PM 30.9681 -107.5211 234° Southwest  Level FlightAware Approximate
03:32PM 30.9044 -107.6240 234° Southwest  Level FlightAware Approximate
03:33PM 30.8406 -107.7267 234° Southwest  Level FlightAware Approximate
03:34PM 30.7768 -107.8293 234° Southwest  Level FlightAware Approximate
03:35PM 30.7128 -107.9318 234° Southwest  Level FlightAware Approximate
03:36PM 30.6488 -108.0341 234° Southwest  Level FlightAware Approximate
03:37PM 30.5846 -108.1363 234° Southwest  Level FlightAware Approximate
03:38PM 30.5204 -108.2383 234° Southwest  Level FlightAware Approximate
03:39PM 30.4562 -108.3402 234° Southwest  Level FlightAware Approximate
03:40PM 30.3967 -108.4459 237° Southwest  Level FlightAware Approximate
03:41PM 30.3317 -108.5467 229° Southwest  Level FlightAware Approximate
03:42PM 30.2656 -108.6468 234° Southwest  Level FlightAware Approximate
03:43PM 30.2009 -108.7480 234° Southwest  Level FlightAware Approximate
03:44PM 30.1362 -108.8492 233° Southwest  Level FlightAware Approximate
03:45PM 30.0713 -108.9502 233° Southwest  Level FlightAware Approximate
03:46PM 30.0070 -109.0516 234° Southwest  Level FlightAware Approximate
03:47PM 29.9429 -109.1532 234° Southwest  Level FlightAware Approximate
03:48PM 29.8788 -109.2546 234° Southwest  Level FlightAware Approximate
03:49PM 29.8133 -109.3549 231° Southwest  Level FlightAware Approximate
03:50PM 29.7455 -109.4529 231° Southwest  Level FlightAware Approximate
03:51PM 29.6776 -109.5509 231° Southwest  Level FlightAware Approximate
03:52PM 29.6149 -109.6531 235° Southwest  Level FlightAware Approximate
03:53PM 29.5531 -109.7561 235° Southwest  Level FlightAware Approximate
03:54PM 29.4899 -109.8579 233° Southwest  Level FlightAware Approximate
03:55PM 29.4247 -109.9581 233° Southwest  Level FlightAware Approximate
03:56PM 29.3595 -110.0581 233° Southwest  Level FlightAware Approximate
03:57PM 29.2942 -110.1579 233° Southwest  Level FlightAware Approximate
03:58PM 29.2285 -110.2573 233° Southwest  Level FlightAware Approximate
03:59PM 29.1624 -110.3564 233° Southwest  Level FlightAware Approximate
04:00PM 29.0964 -110.4555 233° Southwest  Level FlightAware Approximate
04:01PM 29.0831 -110.5658 286° West  Level FlightAware Approximate
04:02PM 29.0834 -110.6904 270° West  Level FlightAware Approximate
04:03PM 29.0833 -110.8149 270° West  Level FlightAware Approximate
04:04PM 29.0833 -110.9394 270° West  Level FlightAware Approximate
04:05PM 29.1000 -111.0500 281° West  Level FlightAware Approximate
04:06PM 29.0959 -111.0479 281° West  Level Estimated
04:07PM 29.1000 -111.0500 281° West  Level FlightAware Approximate
04:08PM 29.0959 -111.0479 281° West  Level Estimated
04:09PM 29.1000 -111.0500 281° West  Level FlightAware Approximate
04:10PM 29.0959 -111.0479 281° West  Level Estimated
04:11PM 29.1000 -111.0500 281° West  Level FlightAware Approximate
04:12PM 29.0959 -111.0479 281° West  Level Estimated
04:13PM 29.1000 -111.0500 281° West  Level FlightAware Approximate
04:14PM 29.0959 -111.0479 281° West  Level Estimated
04:15PM 29.1000 -111.0500 281° West  Level FlightAware Approximate
04:16PM 29.0959 -111.0479 281° West  Level Estimated
04:17PM 29.1000 -111.0500 281° West  Level FlightAware Approximate
04:18PM 29.0959 -111.0479 281° West  Level Estimated
04:19PM 29.1000 -111.0500 281° West  Level FlightAware Approximate
04:20PM 29.0959 -111.0479 281° West  Level Estimated
04:21PM 29.1000 -111.0500 281° West  Level FlightAware Approximate
04:22PM 29.0959 -111.0479 281° West  Level Estimated
04:23PM 29.1000 -111.0500 281° West  Level FlightAware Approximate
04:24PM 29.0959 -111.0479 281° West  Level Estimated